• Join FlightAware (Why Join?)
  • Login
  • US Flag 
04:32AM EDT


 

Airport Tracker/Info


-or-


 

Live Flight TrackerFlight Track Log ✈ GJS3707 ✈ 22-Jun-2013 ✈ KBOI - KORD

Flight Track Log - Related Links

Times and Time Zones

All times are in EDT time to prevent confusion due to time zone crossing. See the GJS3707 flight status page for this flight to view local times or setup timezone preferences in your user account.

Time Position Orientation Groundspeed Altitude Reporting Facility
EDT Latitude Longitude Course Direction KTS MPH feet Rate Location/Type
02:55PM 43.5469 -116.2914 81° East 205 236 5,300  Level Salt Lake Center
02:56PM 43.5106 -116.2189 125° Southeast 245 282 7,600 2,100 Climbing Salt Lake Center
02:57PM 43.6531 -115.5886 78° East  Level FlightAware Approximate
02:57PM 43.5242 -116.1119 80° East 275 316 9,700  Level Salt Lake Center
02:58PM 43.6733 -115.4278 83° East  Level FlightAware Approximate
02:58PM 43.5414 -116.0033 78° East 296 341 11,800  Level Salt Lake Center
02:59PM 43.6888 -115.2670 65° Northeast  Level FlightAware Approximate
02:59PM 43.5619 -115.8717 78° East 331 381 13,500  Level Salt Lake Center
03:00PM 43.7140 -115.1079 81° East  Level FlightAware Approximate
03:00PM 43.5711 -115.7250 85° East 366 421 15,500  Level Salt Lake Center
03:01PM 43.5831 -115.5747 84° East 377 434 17,300 1,560 Climbing Salt Lake Center
03:02PM 43.5961 -115.4158 83° East 397 457 18,800 1,380 Climbing Salt Lake Center
03:03PM 43.6075 -115.2733 84° East 409 471 20,200 1,560 Climbing Salt Lake Center
03:04PM 43.6203 -115.0958 84° East 419 482 22,000 1,560 Climbing Salt Lake Center
03:05PM 43.6311 -114.9417 84° East 422 486 23,400 1,260 Climbing Salt Lake Center
03:06PM 43.6439 -114.7558 85° East 436 502 24,700 1,080 Climbing Salt Lake Center
03:07PM 43.6556 -114.5942 84° East 444 511 25,700 960 Climbing Salt Lake Center
03:08PM 43.6683 -114.4006 85° East 457 526 26,800 960 Climbing Salt Lake Center
03:09PM 43.6794 -114.2322 85° East 461 531 27,800 960 Climbing Salt Lake Center
03:10PM 43.6917 -114.0328 85° East 468 539 28,900 960 Climbing Salt Lake Center
03:11PM 43.7022 -113.8683 85° East 467 537 29,900 960 Climbing Salt Lake Center
03:12PM 43.7131 -113.6675 86° East 469 540 31,000 900 Climbing Salt Lake Center
03:13PM 43.7228 -113.4964 85° East 468 539 31,800 780 Climbing Salt Lake Center
03:14PM 43.7339 -113.2914 86° East 478 550 32,700 780 Climbing Salt Lake Center
03:15PM 43.7425 -113.1172 86° East 477 549 33,500 780 Climbing Salt Lake Center
03:16PM 43.7544 -112.9139 85° East 476 548 34,400 720 Climbing Salt Lake Center
03:17PM 43.7631 -112.7406 86° East 475 547 35,000 480 Climbing Salt Lake Center
03:19PM 43.7728 -112.5339 86° East 481 554 35,500 360 Climbing Salt Lake Center
03:20PM 43.7817 -112.3553 86° East 488 562 35,800 300 Climbing Salt Lake Center
03:21PM 43.7900 -112.1742 86° East 493 567 36,200 480 Climbing Salt Lake Center
03:22PM 43.8003 -111.9664 86° East 486 559 36,800 480 Climbing Salt Lake Center
03:23PM 43.8078 -111.7883 87° East 486 559 37,200 240 Climbing Salt Lake Center
03:24PM 43.8164 -111.5797 87° East 488 562 37,400 240 Climbing Salt Lake Center
03:25PM 43.8228 -111.4006 87° East 490 564 37,700 300 Climbing Salt Lake Center
03:26PM 43.8311 -111.1892 87° East 493 567 38,100 300 Climbing Salt Lake Center
03:27PM 43.8381 -111.0097 87° East 491 565 38,400 360 Climbing Salt Lake Center
03:28PM 43.8461 -110.7997 87° East 492 566 38,900 240 Climbing Salt Lake Center
03:29PM 43.8525 -110.6228 87° East 483 556 39,000  Climbing Salt Lake Center
03:30PM 43.8589 -110.4144 87° East 486 559 39,000  Level Salt Lake Center
03:31PM 43.8642 -110.2383 88° East 482 555 39,000  Level Salt Lake Center
03:32PM 43.8694 -110.0392 88° East 466 536 39,000  Level Salt Lake Center
03:33PM 43.8742 -109.8692 88° East 464 534 39,000  Level Salt Lake Center
03:34PM 43.8786 -109.6694 88° East 463 533 39,000  Level Salt Lake Center
03:35PM 43.8828 -109.5000 88° East 461 531 39,000  Level Salt Lake Center
03:36PM 43.8856 -109.3031 89° East 460 529 39,000  Level Salt Lake Center
03:37PM 43.8900 -109.1319 88° East 463 533 39,000  Level Salt Lake Center
03:38PM 43.8925 -108.9586 89° East 470 541 39,000  Level Salt Lake Center
03:39PM 43.8964 -108.7583 88° East 467 537 39,000  Level Salt Lake Center
03:40PM 43.8989 -108.5861 89° East 468 539 39,000  Level Salt Lake Center
03:41PM 43.9011 -108.3864 89° East 465 535 39,100  Climbing Salt Lake Center
03:42PM 43.9033 -108.2033 89° East 469 540 39,000 -60 Descending Salt Lake Center
03:43PM 43.9053 -108.0325 89° East 465 535 39,000  Level Salt Lake Center
03:44PM 43.9072 -107.8319 89° East 465 535 39,000  Level Salt Lake Center
03:45PM 43.9083 -107.6622 89° East 463 533 39,000  Level Salt Lake Center
03:46PM 43.9014 -107.4753 93° East 462 532 39,000  Level Salt Lake Center
03:47PM 43.8800 -107.3142 100° East 448 516 39,000  Level Salt Lake Center
03:48PM 43.8561 -107.1222 100° East 451 519 39,000  Level Salt Lake Center
03:49PM 43.8344 -106.9600 100° East 448 516 39,000  Level Salt Lake Center
03:50PM 43.8086 -106.7747 101° East 442 509 39,000  Level Salt Lake Center
03:51PM 43.7881 -106.6156 100° East 440 506 39,000  Level Salt Lake Center
03:53PM 43.7647 -106.4308 100° East 437 503 39,000  Level Salt Lake Center
03:54PM 43.7431 -106.2694 100° East 441 507 39,000  Level Denver Center
03:55PM 43.7339 -106.0794 94° East 443 510 39,000  Level Denver Center
03:56PM 43.7350 -105.9117 89° East 452 520 39,000  Level Denver Center
03:57PM 43.7364 -105.7458 89° East 451 519 39,000  Level Denver Center
03:58PM 43.7358 -105.5464 90° East 458 527 39,000 -540 Level Denver Center
03:59PM 43.7353 -105.3694 90° East 466 536 37,900 -1,020 Descending Denver Center
04:00PM 43.7339 -105.1497 90° East 487 560 37,000 -480 Descending Denver Center
04:01PM 43.7344 -104.9586 90° East 503 579 37,000  Level Denver Center
04:02PM 43.7339 -104.7722 90° East 507 583 37,000  Level Denver Center
04:03PM 43.7319 -104.5547 91° East 507 583 37,100  Climbing Denver Center
04:04PM 43.7319 -104.3686 90° East 506 582 37,000 -60 Descending Denver Center
04:05PM 43.7292 -104.1564 91° East 500 575 37,000  Level Denver Center
04:06PM 43.7289 -103.9792 90° East 489 563 37,000  Level Denver Center
04:07PM 43.7250 -103.7986 92° East 489 563 37,000  Level Denver Center
04:08PM 43.7225 -103.5942 91° East 479 551 37,000  Level Denver Center
04:09PM 43.7200 -103.4192 91° East 476 548 37,000  Level Denver Center
04:10PM 43.7161 -103.2150 91° East 476 548 37,000  Level Denver Center
04:11PM 43.7125 -103.0369 92° East 481 554 37,000  Level Denver Center
04:12PM 43.7086 -102.8567 92° East 486 559 37,000  Level Denver Center
04:13PM 43.7011 -102.6439 93° East 492 566 37,000  Level Denver Center
04:14PM 43.6950 -102.4622 93° East 494 568 37,000  Level Denver Center
04:15PM 43.6917 -102.2561 91° East 486 559 37,000  Level Denver Center
04:16PM 43.6872 -102.0764 92° East 485 558 37,000  Level Denver Center
04:17PM 43.6811 -101.8908 93° East 485 558 37,000  Level Denver Center
04:18PM 43.6753 -101.7056 92° East 485 558 37,000  Level Denver Center
04:19PM 43.6689 -101.5225 93° East 480 552 37,000  Level Denver Center
04:20PM 43.6617 -101.3008 93° East 480 552 37,000  Level Denver Center
04:21PM 43.6536 -101.0844 93° East 477 549 37,000  Level Minneapolis Center
04:22PM 43.6469 -100.9358 93° East 479 551 37,000  Level Denver Center
04:23PM 43.6403 -100.7556 93° East 474 545 37,000  Level Denver Center
04:24PM 43.6322 -100.5775 94° East 469 540 37,000  Level Denver Center
04:25PM 43.6258 -100.4000 93° East 466 536 37,000  Level Denver Center
04:26PM 43.6181 -100.2239 93° East 464 534 37,000  Level Denver Center
04:27PM 43.6078 -100.0161 94° East 458 527 37,000  Level Denver Center
04:28PM 43.6000 -99.8442 94° East 453 521 37,000  Level Denver Center
04:30PM 43.5917 -99.6767 94° East 442 509 37,000  Level Denver Center
04:31PM 43.5797 -99.4406 94° East 442 509 37,000  Level Minneapolis Center
04:32PM 43.5708 -99.2731 94° East 439 505 37,000  Level Minneapolis Center
04:33PM 43.5617 -99.1039 94° East 443 510 37,000  Level Minneapolis Center
04:34PM 43.5519 -98.9350 94° East 444 511 37,000  Level Minneapolis Center
04:35PM 43.5436 -98.7994 95° East 444 511 37,000  Level Minneapolis Center
04:36PM 43.5308 -98.5642 94° East 446 513 37,000  Level Minneapolis Center
04:37PM 43.5200 -98.3953 95° East 445 512 37,000  Level Minneapolis Center
04:38PM 43.5100 -98.2256 95° East 447 514 37,000  Level Minneapolis Center
04:39PM 43.4986 -98.0561 95° East 447 514 37,000  Level Minneapolis Center
04:40PM 43.4872 -97.8858 95° East 448 516 37,000  Level Minneapolis Center
04:41PM 43.4742 -97.6822 95° East 446 513 37,000  Level Minneapolis Center
04:42PM 43.4625 -97.5139 95° East 446 513 37,000  Level Minneapolis Center
04:43PM 43.4506 -97.3467 96° East 443 510 37,000  Level Minneapolis Center
04:44PM 43.4392 -97.1778 95° East 445 512 37,000  Level Minneapolis Center
04:45PM 43.4267 -97.0097 96° East 444 511 37,000  Level Minneapolis Center
04:46PM 43.4142 -96.8433 96° East 443 510 37,000  Level Minneapolis Center
04:47PM 43.3986 -96.6425 96° East 443 510 37,000  Level Minneapolis Center
04:48PM 43.3858 -96.4753 96° East 444 511 37,000  Level Minneapolis Center
04:49PM 43.3722 -96.3094 96° East 441 507 37,000  Level Minneapolis Center
04:51PM 43.3597 -96.1408 96° East 445 512 37,000  Level Minneapolis Center
04:52PM 43.3456 -95.9742 97° East 443 510 37,000  Level Minneapolis Center
04:53PM 43.3314 -95.8078 97° East 444 511 37,000  Level Minneapolis Center
04:54PM 43.3142 -95.6078 97° East 442 509 37,000  Level Minneapolis Center
04:55PM 43.3006 -95.4389 96° East 445 512 37,000  Level Minneapolis Center
04:56PM 43.2847 -95.2717 97° East 445 512 37,000  Level Minneapolis Center
04:57PM 43.2700 -95.1033 97° East 447 514 37,000  Level Minneapolis Center
04:58PM 43.2547 -94.9350 97° East 448 516 37,000  Level Minneapolis Center
04:59PM 43.2389 -94.7647 97° East 450 518 37,000  Level Minneapolis Center
05:00PM 43.2186 -94.5644 98° East 447 514 37,000  Level Minneapolis Center
05:01PM 43.2031 -94.3969 97° East 446 513 37,000  Level Minneapolis Center
05:02PM 43.1856 -94.2125 97° East 446 513 37,000  Level Minneapolis Center
05:03PM 43.1681 -94.0453 98° East 448 516 37,000  Level Minneapolis Center
05:04PM 43.1508 -93.8789 98° East 445 512 37,000  Level Minneapolis Center
05:05PM 43.1336 -93.7125 98° East 445 512 37,000  Level Minneapolis Center
05:06PM 43.1169 -93.5453 98° East 448 516 37,000  Level Minneapolis Center
05:07PM 43.0956 -93.3469 98° East 445 512 37,000  Level Minneapolis Center
05:08PM 43.0842 -93.1767 95° East 451 519 37,000  Level Minneapolis Center
05:09PM 43.0711 -92.9719 95° East 454 522 37,000 -240 Level Minneapolis Center
05:10PM 43.0592 -92.8031 95° East 452 520 36,600 -720 Descending Minneapolis Center
05:11PM 43.0475 -92.6344 95° East 449 517 35,600 -1,020 Descending Minneapolis Center
05:12PM 43.0353 -92.4683 96° East 446 513 34,600 -1,080 Descending Minneapolis Center
05:13PM 43.0194 -92.2633 96° East 454 522 33,400 -1,080 Descending Chicago Center
05:14PM 43.0078 -92.0897 95° East 460 529 32,400 -1,020 Descending Minneapolis Center
05:16PM 42.9950 -91.9153 96° East 462 532 31,400 -720 Descending Minneapolis Center
05:17PM 42.9819 -91.7381 96° East 465 535 31,000 -240 Descending Minneapolis Center
05:18PM 42.9686 -91.5581 96° East 470 541 31,000  Level Minneapolis Center
05:19PM 42.9542 -91.3867 97° East 448 516 31,000  Level Minneapolis Center
05:20PM 42.9400 -91.2219 97° East 440 506 31,000 -120 Level Minneapolis Center
05:21PM 42.9225 -91.0228 97° East 442 509 30,800 -780 Descending Minneapolis Center
05:22PM 42.9097 -90.8586 96° East 442 509 29,400 -1,320 Descending Chicago Center
05:23PM 42.8961 -90.6989 97° East 430 495 28,100 -1,320 Descending Chicago Center
05:24PM 42.8806 -90.5414 98° East 421 484 26,700 -1,380 Descending Chicago Center
05:25PM 42.8664 -90.3889 97° East 409 471 25,300 -1,320 Descending Chicago Center
05:26PM 42.8517 -90.2092 96° East 394 453 24,000 -660 Descending Chicago Center
05:27PM 42.8350 -90.0736 99° East 370 426 24,000  Level Chicago Center
05:28PM 42.7994 -89.9439 110° East 369 425 24,000  Level Chicago Center
05:29PM 42.7589 -89.8056 112° Southeast 369 425 24,000 -780 Level Chicago Center
05:30PM 42.7222 -89.6747 111° Southeast 371 427 22,500 -1,620 Descending Chicago Center
05:31PM 42.6856 -89.5483 112° Southeast 361 415 20,700 -1,740 Descending Chicago Center
05:32PM 42.6497 -89.4228 111° Southeast 357 411 19,000 -1,800 Descending Chicago Center
05:33PM 42.6078 -89.2781 111° Southeast 357 411 17,000 -1,800 Descending Chicago Center
05:34PM 42.5717 -89.1550 112° Southeast 354 407 15,300 -1,440 Descending Chicago Center
05:35PM 42.5381 -89.0392 111° Southeast 334 384 14,100 -1,080 Descending Chicago Center
05:36PM 42.5094 -88.9378 111° Southeast 294 338 13,100 -660 Descending Chicago Center
05:37PM 42.5144 -88.8303 86° East 286 329 12,800 -780 Descending Chicago Center
05:38PM 42.5058 -88.7267 96° East 281 323 11,500 -1,260 Descending Chicago Center
05:39PM 42.4497 -88.6325 129° Southeast 272 313 10,200 -1,200 Descending Chicago Center
05:40PM 42.4058 -88.5539 127° Southeast 263 303 9,100 -540 Descending Chicago Center
05:41PM 42.3756 -88.4694 116° Southeast 251 289 9,100 -600 Level Chicago Center
05:42PM 42.3450 -88.3853 116° Southeast 252 290 7,900 -1,320 Descending Chicago Center
05:43PM 42.3089 -88.2989 119° Southeast 247 284 6,400 -1,260 Descending Chicago Center
05:44PM 42.2594 -88.2381 138° Southeast 243 280 5,300 -1,080 Descending Chicago Center
05:45PM 42.2106 -88.1803 139° Southeast 239 275 4,200 -660 Descending Chicago Center
05:46PM 42.1644 -88.1258 139° Southeast 227 261 4,000 -600 Descending Chicago Center
05:47PM 42.1167 -88.0667 137° Southeast 205 236 3,000 -1,020 Descending Chicago TRACON